createdAt,value
2018-06-22T00:01:18.404Z,1.00
2018-06-22T00:03:48.396Z,1.30
2018-06-22T00:06:17.641Z,1.03
2018-06-22T00:08:46.975Z,1.10
2018-06-22T00:11:16.804Z,1.17
2018-06-22T00:13:46.298Z,0.80
2018-06-22T00:16:16.269Z,1.13
2018-06-22T00:18:45.698Z,1.90
2018-06-22T00:21:14.822Z,1.00
2018-06-22T00:23:44.204Z,0.80
2018-06-22T00:26:13.923Z,1.27
2018-06-22T00:28:43.668Z,1.00
2018-06-22T00:31:12.777Z,1.00
2018-06-22T00:33:41.848Z,1.00
2018-06-22T00:36:11.021Z,0.83
2018-06-22T00:38:40.260Z,0.90
2018-06-22T00:41:09.309Z,1.07
2018-06-22T00:43:39.515Z,0.90
2018-06-22T00:46:09.032Z,1.10
2018-06-22T00:48:39.327Z,1.10
2018-06-22T00:51:08.690Z,1.33
2018-06-22T00:53:48.755Z,0.97
2018-06-22T00:56:17.924Z,0.80
2018-06-22T00:58:47.940Z,0.90
2018-06-22T01:01:17.314Z,1.07
2018-06-22T01:03:47.617Z,0.87
2018-06-22T01:06:16.726Z,1.00
2018-06-22T01:08:45.873Z,1.00
2018-06-22T01:11:16.548Z,0.90
2018-06-22T01:13:45.792Z,0.93
2018-06-22T01:16:14.985Z,1.07
2018-06-22T01:18:44.639Z,0.93
2018-06-22T01:21:14.017Z,1.23
2018-06-22T01:23:43.245Z,0.87
2018-06-22T01:26:12.400Z,1.03
2018-06-22T01:28:41.527Z,0.90
2018-06-22T01:31:10.861Z,1.00
2018-06-22T01:33:39.917Z,0.77
2018-06-22T01:36:09.180Z,0.70
2018-06-22T01:38:39.006Z,1.63
2018-06-22T01:41:08.248Z,0.93
2018-06-22T01:43:37.284Z,0.90
2018-06-22T01:46:07.388Z,1.10
2018-06-22T01:48:36.499Z,0.97
2018-06-22T01:51:05.539Z,0.83
2018-06-22T01:53:34.941Z,1.03
2018-06-22T01:56:04.320Z,1.43
2018-06-22T01:58:33.436Z,0.80
2018-06-22T02:01:03.247Z,1.10
2018-06-22T02:03:33.773Z,0.83
2018-06-22T02:06:03.853Z,0.90
2018-06-22T02:08:33.760Z,1.20
2018-06-22T02:11:04.620Z,0.93
2018-06-22T02:13:34.149Z,1.00
2018-06-22T02:16:03.493Z,1.30
2018-06-22T02:18:32.826Z,1.07
2018-06-22T02:21:02.161Z,1.47
2018-06-22T02:23:32.234Z,1.00
2018-06-22T02:26:02.066Z,1.03
2018-06-22T02:28:31.213Z,1.20
2018-06-22T02:31:00.344Z,0.90
2018-06-22T02:33:29.481Z,0.70
2018-06-22T02:35:58.755Z,0.87
2018-06-22T02:38:28.051Z,1.10
2018-06-22T02:41:04.571Z,0.97
2018-06-22T02:43:34.229Z,1.00
2018-06-22T02:46:03.846Z,1.40
2018-06-22T02:48:32.996Z,0.90
2018-06-22T02:51:02.635Z,1.20
2018-06-22T02:53:32.293Z,0.90
2018-06-22T02:56:01.975Z,1.10
2018-06-22T02:58:31.104Z,0.87
2018-06-22T03:01:01.821Z,1.07
2018-06-22T03:03:31.950Z,1.10
2018-06-22T03:06:01.105Z,1.30
2018-06-22T03:08:30.416Z,0.87
2018-06-22T03:11:02.512Z,1.20
2018-06-22T03:13:32.017Z,1.10
2018-06-22T03:16:01.348Z,0.90
2018-06-22T03:18:30.742Z,1.00
2018-06-22T03:21:00.155Z,1.17
2018-06-22T03:23:29.371Z,0.80
2018-06-22T03:25:58.627Z,1.20
2018-06-22T03:28:28.698Z,1.37
2018-06-22T03:30:58.134Z,1.10
2018-06-22T03:33:27.416Z,1.10
2018-06-22T03:35:56.720Z,0.93
2018-06-22T03:38:27.872Z,1.13
2018-06-22T03:40:58.052Z,0.90
2018-06-22T03:43:28.025Z,1.10
2018-06-22T03:45:59.045Z,1.20
2018-06-22T03:48:29.834Z,1.13
2018-06-22T03:50:59.259Z,1.10
2018-06-22T03:53:29.565Z,1.00
2018-06-22T03:55:58.832Z,1.07
2018-06-22T03:58:28.183Z,1.03
2018-06-22T04:00:57.347Z,0.80
2018-06-22T04:03:26.546Z,1.37
2018-06-22T04:05:56.715Z,0.97
2018-06-22T04:08:27.495Z,1.13
2018-06-22T04:10:57.413Z,1.33
2018-06-22T04:13:27.053Z,1.13
2018-06-22T04:15:56.178Z,0.93
2018-06-22T04:18:25.928Z,0.90
2018-06-22T04:20:57.658Z,1.27
2018-06-22T04:23:27.251Z,1.43
2018-06-22T04:25:58.917Z,1.20
2018-06-22T04:28:27.956Z,1.70
2018-06-22T04:30:59.675Z,1.30
2018-06-22T04:33:28.862Z,1.40
2018-06-22T04:35:58.051Z,1.40
2018-06-22T04:38:27.350Z,1.30
2018-06-22T04:40:57.537Z,1.17
2018-06-22T04:43:27.494Z,1.00
2018-06-22T04:45:56.704Z,1.67
2018-06-22T04:48:27.005Z,1.37
2018-06-22T04:50:56.353Z,1.50
2018-06-22T04:53:25.703Z,1.13
2018-06-22T04:55:56.720Z,1.60
2018-06-22T04:58:27.037Z,1.30
2018-06-22T05:00:56.041Z,1.33
2018-06-22T05:03:24.746Z,1.27
2018-06-22T05:05:53.396Z,1.40
2018-06-22T05:08:21.992Z,1.20
2018-06-22T05:10:50.739Z,2.07
2018-06-22T05:13:19.293Z,1.33
2018-06-22T05:15:48.001Z,1.20
2018-06-22T05:18:16.700Z,1.23
2018-06-22T05:20:45.559Z,1.30
2018-06-22T05:23:14.651Z,1.00
2018-06-22T05:25:45.080Z,1.83
2018-06-22T05:28:14.146Z,1.77
2018-06-22T05:30:43.926Z,1.37
2018-06-22T05:33:12.961Z,1.77
2018-06-22T05:35:42.574Z,1.30
2018-06-22T05:38:11.513Z,1.30
2018-06-22T05:40:40.455Z,1.27
2018-06-22T05:43:09.484Z,0.90
2018-06-22T05:45:38.470Z,1.12
2018-06-22T05:48:07.559Z,1.22
2018-06-22T05:50:36.738Z,1.15
2018-06-22T05:53:05.843Z,0.95
2018-06-22T05:55:34.905Z,1.00
2018-06-22T05:58:03.728Z,1.10
2018-06-22T06:00:33.695Z,1.10
2018-06-22T06:03:02.821Z,1.35
2018-06-22T06:05:34.732Z,1.32
2018-06-22T06:08:05.041Z,0.90
2018-06-22T06:10:37.684Z,0.90
2018-06-22T06:13:22.809Z,1.77
2018-06-22T06:16:02.351Z,0.88
2018-06-22T06:18:31.085Z,1.10
2018-06-22T06:20:59.756Z,1.12
2018-06-22T06:23:28.572Z,1.30
2018-06-22T06:25:57.226Z,1.27
2018-06-22T06:28:26.215Z,1.10
2018-06-22T06:30:55.066Z,1.05
2018-06-22T06:33:23.796Z,1.02
2018-06-22T06:35:52.580Z,1.12
2018-06-22T06:38:21.408Z,1.30
2018-06-22T06:40:50.166Z,1.40
2018-06-22T06:43:18.903Z,1.10
2018-06-22T06:45:47.625Z,1.00
2018-06-22T06:48:16.345Z,1.07
2018-06-22T06:50:45.009Z,1.40
2018-06-22T06:53:13.596Z,1.40
2018-06-22T06:55:42.241Z,1.40
2018-06-22T06:58:10.833Z,1.80
2018-06-22T07:00:39.445Z,1.50
2018-06-22T07:03:08.288Z,1.17
2018-06-22T07:05:37.020Z,1.55
2018-06-22T07:08:05.749Z,1.42
2018-06-22T07:10:34.415Z,1.80
2018-06-22T07:13:02.980Z,1.55
2018-06-22T07:15:36.033Z,1.62
2018-06-22T07:18:04.948Z,1.47
2018-06-22T07:20:34.128Z,1.50
2018-06-22T07:23:03.334Z,2.00
2018-06-22T07:25:32.063Z,1.60
2018-06-22T07:28:00.842Z,1.15
2018-06-22T07:30:29.639Z,1.82
2018-06-22T07:32:58.369Z,1.47
2018-06-22T07:35:27.200Z,1.82
2018-06-22T07:37:55.877Z,1.70
2018-06-22T07:40:24.701Z,1.45
2018-06-22T07:42:53.642Z,1.30
2018-06-22T07:45:22.572Z,1.65
2018-06-22T07:47:51.219Z,1.30
2018-06-22T07:50:19.975Z,1.70
2018-06-22T07:52:48.659Z,1.45
2018-06-22T07:55:17.716Z,1.55
2018-06-22T07:57:46.682Z,1.52
2018-06-22T08:00:15.413Z,1.70
2018-06-22T08:02:44.175Z,1.40
2018-06-22T08:05:12.954Z,1.70
2018-06-22T08:07:41.713Z,1.70
2018-06-22T08:10:10.579Z,2.00
2018-06-22T08:12:39.682Z,1.62
2018-06-22T08:15:08.451Z,2.05
2018-06-22T08:17:37.270Z,2.33
2018-06-22T08:20:06.057Z,1.50
2018-06-22T08:22:44.569Z,1.30
2018-06-22T08:25:13.688Z,1.80
2018-06-22T08:27:42.586Z,1.75
2018-06-22T08:30:11.420Z,1.30
2018-06-22T08:32:40.307Z,1.37
2018-06-22T08:35:09.127Z,1.20
2018-06-22T08:37:38.032Z,1.25
2018-06-22T08:40:06.907Z,1.75
2018-06-22T08:42:35.674Z,1.40
2018-06-22T08:45:04.479Z,1.30
2018-06-22T08:47:33.285Z,1.17
2018-06-22T08:50:02.110Z,1.35
2018-06-22T08:52:31.014Z,1.30
2018-06-22T08:54:59.861Z,1.12
2018-06-22T08:57:28.649Z,1.30
2018-06-22T08:59:57.452Z,1.30
2018-06-22T09:02:26.282Z,1.25
2018-06-22T09:04:55.795Z,1.35
2018-06-22T09:07:24.496Z,1.27
2018-06-22T09:09:53.119Z,1.02
2018-06-22T09:12:21.840Z,1.22
2018-06-22T09:14:50.643Z,1.10
2018-06-22T09:17:19.354Z,1.55
2018-06-22T09:19:48.116Z,0.90
2018-06-22T09:22:16.892Z,1.45
2018-06-22T09:24:46.576Z,1.50
2018-06-22T09:27:18.433Z,1.12
2018-06-22T09:29:47.281Z,1.00
2018-06-22T09:32:16.145Z,1.67
2018-06-22T09:34:44.911Z,1.10
2018-06-22T09:37:13.687Z,1.20
2018-06-22T09:39:42.708Z,1.27
2018-06-22T09:42:11.551Z,1.60
2018-06-22T09:44:40.795Z,1.22
2018-06-22T09:47:09.958Z,1.42
2018-06-22T09:49:38.767Z,1.20
2018-06-22T09:55:18.558Z,1.10
2018-06-22T09:57:47.428Z,1.00
2018-06-22T10:00:18.146Z,1.22
2018-06-22T10:02:47.733Z,1.22
2018-06-22T10:05:16.482Z,1.00
2018-06-22T10:07:45.295Z,2.98
2018-06-22T10:10:14.151Z,1.17
2018-06-22T10:12:43.181Z,1.02
2018-06-22T10:15:12.540Z,1.20
2018-06-22T10:17:41.339Z,1.12
2018-06-22T10:20:10.246Z,1.55
2018-06-22T10:22:39.033Z,1.10
2018-06-22T10:25:07.775Z,0.90
2018-06-22T10:27:36.650Z,1.30
2018-06-22T10:30:06.233Z,1.05
2018-06-22T10:32:34.885Z,1.70
2018-06-22T10:35:03.367Z,1.45
2018-06-22T10:37:31.934Z,0.80
2018-06-22T10:40:00.407Z,1.05
2018-06-22T10:42:42.065Z,1.02
2018-06-22T10:45:10.585Z,1.07
2018-06-22T10:47:39.104Z,1.02
2018-06-22T10:50:07.622Z,1.40
2018-06-22T10:52:36.129Z,1.27
2018-06-22T10:55:04.684Z,1.00
2018-06-22T10:57:33.206Z,1.25
2018-06-22T11:00:01.750Z,1.22
2018-06-22T11:02:30.224Z,1.20
2018-06-22T11:04:58.759Z,1.10
2018-06-22T11:07:27.291Z,0.90
2018-06-22T11:09:55.803Z,1.17
2018-06-22T11:12:24.275Z,0.93
2018-06-22T11:14:52.796Z,1.00
2018-06-22T11:17:21.324Z,0.70
2018-06-22T11:19:49.814Z,1.02
2018-06-22T11:22:18.518Z,1.00
2018-06-22T11:24:47.404Z,0.80
2018-06-22T11:27:16.321Z,1.00
2018-06-22T11:29:45.138Z,1.02
2018-06-22T11:32:13.992Z,0.98
2018-06-22T11:34:42.887Z,0.98
2018-06-22T11:37:11.521Z,0.90
2018-06-22T11:39:40.260Z,1.10
2018-06-22T11:42:10.053Z,1.00
2018-06-22T11:44:38.997Z,0.70
2018-06-22T11:47:07.691Z,0.93
2018-06-22T11:49:37.428Z,0.80
2018-06-22T11:52:05.919Z,1.10
2018-06-22T11:54:34.424Z,0.90
2018-06-22T11:57:02.921Z,0.78
2018-06-22T11:59:31.434Z,1.17
2018-06-22T12:01:59.925Z,0.70
2018-06-22T12:04:28.451Z,1.00
2018-06-22T12:06:57.015Z,0.60
2018-06-22T12:09:25.603Z,0.80
2018-06-22T12:11:54.110Z,0.80
2018-06-22T12:14:22.639Z,1.20
2018-06-22T12:16:51.113Z,1.23
2018-06-22T12:19:19.901Z,1.23
2018-06-22T12:21:48.307Z,1.10
2018-06-22T12:24:16.792Z,0.83
2018-06-22T12:26:45.296Z,1.50
2018-06-22T12:29:14.560Z,1.07
2018-06-22T12:31:43.147Z,1.10
2018-06-22T12:34:11.880Z,1.00
2018-06-22T12:36:40.387Z,1.20
2018-06-22T12:39:11.316Z,1.17
2018-06-22T12:41:40.006Z,0.90
2018-06-22T12:44:08.652Z,1.20
2018-06-22T12:46:37.418Z,1.03
2018-06-22T12:49:06.311Z,0.90
2018-06-22T12:51:34.975Z,0.85
2018-06-22T12:54:03.720Z,0.90
2018-06-22T12:56:32.404Z,1.52
2018-06-22T12:59:01.024Z,0.88
2018-06-22T13:01:29.641Z,1.20
2018-06-22T13:03:58.383Z,1.10
2018-06-22T13:06:27.002Z,1.10
2018-06-22T13:08:56.208Z,1.40
2018-06-22T13:11:24.979Z,1.00
2018-06-22T13:13:53.717Z,1.10
2018-06-22T13:16:22.415Z,1.20
2018-06-22T13:18:51.099Z,0.90
2018-06-22T13:21:19.739Z,1.25
2018-06-22T13:23:48.239Z,1.37
2018-06-22T13:26:16.798Z,1.85
2018-06-22T13:28:45.291Z,1.52
2018-06-22T13:31:14.208Z,1.05
2018-06-22T13:33:43.067Z,1.52
2018-06-22T13:36:11.726Z,0.88
2018-06-22T13:38:40.431Z,0.75
2018-06-22T13:41:09.116Z,1.00
2018-06-22T13:43:37.799Z,1.27
2018-06-22T13:46:06.735Z,0.98
2018-06-22T13:48:35.698Z,1.40
2018-06-22T13:51:04.353Z,1.02
2018-06-22T13:53:32.932Z,1.00
2018-06-22T13:56:01.542Z,0.95
2018-06-22T13:58:30.120Z,1.20
2018-06-22T14:00:58.637Z,1.32
2018-06-22T14:03:27.155Z,1.42
2018-06-22T14:06:00.958Z,1.33
2018-06-22T14:08:29.533Z,1.17
2018-06-22T14:10:58.140Z,1.67
2018-06-22T14:13:26.703Z,1.37
2018-06-22T14:15:55.358Z,1.72
2018-06-22T14:18:23.903Z,1.30
2018-06-22T14:20:52.576Z,1.02
2018-06-22T14:23:21.220Z,1.47
2018-06-22T14:25:49.873Z,1.57
2018-06-22T14:28:18.483Z,1.30
2018-06-22T14:30:47.166Z,1.10
2018-06-22T14:33:15.744Z,0.90
2018-06-22T14:35:44.425Z,1.10
2018-06-22T14:38:13.066Z,1.30
2018-06-22T14:40:41.679Z,1.30
2018-06-22T14:43:10.310Z,1.62
2018-06-22T14:45:38.939Z,1.90
2018-06-22T14:48:07.591Z,1.40
2018-06-22T14:50:36.244Z,1.47
2018-06-22T14:53:04.939Z,1.60
2018-06-22T14:55:38.896Z,1.30
2018-06-22T14:58:13.042Z,1.77
2018-06-22T15:00:47.022Z,1.10
2018-06-22T15:03:20.856Z,0.85
2018-06-22T15:05:54.828Z,1.53
2018-06-22T15:08:24.087Z,1.37
2018-06-22T15:10:52.599Z,1.80
2018-06-22T15:13:21.436Z,2.20
2018-06-22T15:15:50.693Z,1.83
2018-06-22T15:18:20.357Z,1.90
2018-06-22T15:20:50.891Z,2.00
2018-06-22T15:23:19.815Z,2.03
2018-06-22T15:25:48.652Z,2.03
2018-06-22T15:28:17.272Z,1.93
2018-06-22T15:30:45.842Z,2.33
2018-06-22T15:33:19.606Z,2.10
2018-06-22T15:35:53.408Z,1.97
2018-06-22T15:38:27.315Z,2.10
2018-06-22T15:41:02.719Z,1.50
2018-06-22T15:43:36.601Z,1.70
2018-06-22T15:46:10.332Z,1.97
2018-06-22T15:48:47.029Z,1.40
2018-06-22T15:51:20.834Z,1.27
2018-06-22T15:53:54.754Z,1.40
2018-06-22T15:56:24.302Z,1.20
2018-06-22T15:58:53.266Z,1.00
2018-06-22T16:01:21.828Z,1.37
2018-06-22T16:03:55.744Z,1.30
2018-06-22T16:06:24.497Z,1.00
2018-06-22T16:08:52.999Z,1.70
2018-06-22T16:11:25.947Z,0.80
2018-06-22T16:14:00.575Z,1.13
2018-06-22T16:16:34.544Z,1.63
2018-06-22T16:19:08.366Z,1.00
2018-06-22T16:21:46.112Z,1.07
2018-06-22T16:24:19.714Z,12.27
2018-06-22T16:26:53.579Z,1.60
2018-06-22T16:29:22.515Z,3.37
2018-06-22T16:31:51.088Z,1.30
2018-06-22T16:34:19.631Z,1.40
2018-06-22T16:36:48.096Z,1.70
2018-06-22T16:39:16.563Z,2.00
2018-06-22T16:41:45.018Z,1.70
2018-06-22T16:44:13.684Z,1.70
2018-06-22T16:46:42.184Z,1.70
2018-06-22T16:49:10.691Z,1.57
2018-06-22T16:51:39.282Z,1.90
2018-06-22T16:54:07.851Z,1.73
2018-06-22T16:56:36.335Z,1.97
2018-06-22T16:59:05.303Z,1.87
2018-06-22T17:01:34.208Z,1.83
2018-06-22T17:04:02.843Z,1.83
2018-06-22T17:06:36.536Z,2.10
2018-06-22T17:09:12.996Z,2.30
2018-06-22T17:13:53.127Z,2.43
2018-06-22T17:16:32.871Z,3.27
2018-06-22T17:19:01.367Z,2.50
2018-06-22T17:21:35.163Z,2.50
2018-06-22T17:24:03.666Z,2.07
2018-06-22T17:26:33.228Z,1.80
2018-06-22T17:29:03.020Z,2.00
2018-06-22T17:31:32.169Z,2.20
2018-06-22T17:34:00.979Z,2.23
2018-06-22T17:36:30.526Z,2.40
2018-06-22T17:38:59.533Z,2.73
2018-06-22T17:41:28.188Z,2.10
2018-06-22T17:43:58.019Z,2.73
2018-06-22T17:46:27.908Z,2.67
2018-06-22T17:48:56.560Z,2.90
2018-06-22T17:51:25.389Z,2.50
2018-06-22T17:53:54.336Z,2.57
2018-06-22T17:56:28.504Z,2.80
2018-06-22T17:59:02.438Z,2.60
2018-06-22T18:01:36.376Z,3.17
2018-06-22T18:04:10.882Z,3.23
2018-06-22T18:06:45.884Z,3.20
2018-06-22T18:09:19.731Z,3.40
2018-06-22T18:11:53.798Z,3.37
2018-06-22T18:14:22.588Z,3.83
2018-06-22T18:16:51.287Z,3.77
2018-06-22T18:19:19.912Z,3.90
2018-06-22T18:21:48.419Z,3.60
2018-06-22T18:24:17.224Z,3.83
2018-06-22T18:26:46.434Z,3.63
2018-06-22T18:29:15.833Z,3.50
2018-06-22T18:31:44.905Z,3.63
2018-06-22T18:34:15.261Z,4.33
2018-06-22T18:36:43.995Z,4.00
2018-06-22T18:39:13.351Z,4.33
2018-06-22T18:41:42.015Z,7.63
2018-06-22T18:44:15.009Z,4.17
2018-06-22T18:46:44.003Z,3.60
2018-06-22T18:49:13.307Z,3.50
2018-06-22T18:51:42.198Z,4.37
2018-06-22T18:54:16.193Z,4.10
2018-06-22T18:58:54.043Z,4.13
2018-06-22T19:01:27.939Z,4.50
2018-06-22T19:03:56.952Z,4.87
2018-06-22T19:06:25.812Z,4.90
2018-06-22T19:08:54.596Z,4.43
2018-06-22T19:11:23.111Z,4.70
2018-06-22T19:13:51.773Z,4.63
2018-06-22T19:16:20.487Z,4.60
2018-06-22T19:18:49.183Z,4.53
2018-06-22T19:21:19.584Z,4.57
2018-06-22T19:23:48.079Z,4.77
2018-06-22T19:26:16.606Z,4.63
2018-06-22T19:28:45.105Z,4.70
2018-06-22T19:31:13.647Z,5.13
2018-06-22T19:33:42.159Z,4.53
2018-06-22T19:36:10.724Z,4.90
2018-06-22T19:38:39.663Z,4.90
2018-06-22T19:41:08.272Z,4.90
2018-06-22T19:43:42.543Z,4.90
2018-06-22T19:46:16.505Z,5.13
2018-06-22T19:48:50.403Z,4.70
2018-06-22T19:51:24.433Z,4.80
2018-06-22T19:53:56.947Z,5.00
2018-06-22T19:56:25.772Z,5.10
2018-06-22T19:58:54.320Z,4.87
2018-06-22T20:01:22.863Z,5.43
2018-06-22T20:03:51.651Z,5.50
2018-06-22T20:06:20.205Z,5.83
2018-06-22T20:08:48.901Z,4.93
2018-06-22T20:11:18.011Z,4.97
2018-06-22T20:13:47.147Z,5.17
2018-06-22T20:16:16.380Z,5.27
2018-06-22T20:18:44.991Z,5.30
2018-06-22T20:21:13.645Z,5.10
2018-06-22T20:23:42.210Z,5.17
2018-06-22T20:26:10.723Z,5.57
2018-06-22T20:28:39.266Z,5.50
2018-06-22T20:31:07.820Z,4.93
2018-06-22T20:33:36.345Z,5.73
2018-06-22T20:36:10.071Z,5.80
2018-06-22T20:38:43.971Z,5.90
2018-06-22T20:41:17.866Z,6.37
2018-06-22T20:43:51.725Z,5.73
2018-06-22T20:46:25.679Z,6.20
2018-06-22T20:51:03.275Z,5.97
2018-06-22T20:53:31.831Z,6.20
2018-06-22T20:56:00.411Z,23.03
2018-06-22T20:58:29.475Z,6.20
2018-06-22T21:01:03.736Z,6.00
2018-06-22T21:03:34.932Z,6.17
2018-06-22T21:06:05.989Z,6.73
2018-06-22T21:08:38.280Z,6.20
2018-06-22T21:11:06.894Z,7.00
2018-06-22T21:13:35.375Z,6.50
2018-06-22T21:16:04.116Z,5.93
2018-06-22T21:18:32.647Z,6.10
2018-06-22T21:23:09.294Z,7.10
2018-06-22T21:25:38.004Z,6.43
2018-06-22T21:28:11.876Z,7.20
2018-06-22T21:30:45.583Z,6.67
2018-06-22T21:33:19.397Z,6.57
2018-06-22T21:35:53.045Z,6.90
2018-06-22T21:38:26.809Z,6.03
2018-06-22T21:40:55.276Z,6.87
2018-06-22T21:43:23.780Z,6.80
2018-06-22T21:45:52.259Z,6.73
2018-06-22T21:48:20.759Z,6.53
2018-06-22T21:50:49.512Z,6.53
2018-06-22T21:53:18.000Z,6.13
2018-06-22T21:55:46.523Z,7.00
2018-06-22T21:58:15.007Z,6.40
2018-06-22T22:00:43.555Z,6.60
2018-06-22T22:03:12.004Z,6.17
2018-06-22T22:05:40.486Z,6.50
2018-06-22T22:08:08.968Z,6.67
2018-06-22T22:10:42.696Z,6.17
2018-06-22T22:13:11.175Z,5.97
2018-06-22T22:15:39.660Z,4.93
2018-06-22T22:18:08.151Z,5.17
2018-06-22T22:20:37.018Z,6.00
2018-06-22T22:23:05.662Z,5.33
2018-06-22T22:25:34.370Z,5.80
2018-06-22T22:28:02.858Z,5.10
2018-06-22T22:30:32.143Z,4.97
2018-06-22T22:33:00.644Z,4.93
2018-06-22T22:35:29.143Z,5.90
2018-06-22T22:37:57.856Z,6.13
2018-06-22T22:40:26.358Z,5.83
2018-06-22T22:42:54.834Z,6.13
2018-06-22T22:45:23.377Z,6.17
2018-06-22T22:47:51.803Z,5.83
2018-06-22T22:50:20.299Z,6.80
2018-06-22T22:52:48.779Z,5.20
2018-06-22T22:55:17.515Z,6.27
2018-06-22T22:57:45.983Z,6.87
2018-06-22T23:00:14.503Z,6.63
2018-06-22T23:02:42.975Z,6.20
2018-06-22T23:05:11.470Z,5.60
2018-06-22T23:07:39.935Z,5.90
2018-06-22T23:10:08.415Z,5.70
2018-06-22T23:12:36.924Z,5.90
2018-06-22T23:15:05.758Z,6.33
2018-06-22T23:17:34.244Z,5.60
2018-06-22T23:20:02.812Z,6.60
2018-06-22T23:22:42.248Z,6.27
2018-06-22T23:25:10.779Z,6.47
2018-06-22T23:27:39.278Z,6.30
2018-06-22T23:30:07.951Z,5.93
2018-06-22T23:32:36.482Z,5.77
2018-06-22T23:35:05.151Z,5.70
2018-06-22T23:37:33.647Z,5.80
2018-06-22T23:40:02.147Z,5.17
2018-06-22T23:42:30.624Z,6.23
2018-06-22T23:44:59.106Z,6.30
2018-06-22T23:47:27.570Z,6.33
2018-06-22T23:49:56.055Z,6.23
2018-06-22T23:52:24.535Z,5.80
2018-06-22T23:54:53.066Z,6.33
2018-06-22T23:57:21.572Z,6.10
2018-06-22T23:59:50.038Z,5.80
